Pagrindinis puslapis
METAR-TAF:

METAR-TAF

Oro uostai :

Passo Fundo, Pietų Rio Grandė, Brazilija

platuma: 28-15S, ilguma: 052-24W, Aukštis: 684 m

Dabartinis oras

Ataskaita buvo paskelbta 1 valandą ir 5 minutes, ne 21:00 UTC
Vėjas 8 kt iš Šiaurės Vakarų
Temperatūra 27°C
Drėgmė 62%
Slėgis 1013 hPa
Matomumas 10 km arba daugiau
Mažai debesys ne aukštis 4500 ft

METAR: SBPF 162100Z 32008KT 9999 FEW045 27/19 Q1013

Laikas: 19:05 (22:05 UTC)


TAF: trūkstamas

Orai ataskaitas ir orų prognozės (METAR, TAF).

turimą stotys yra geltonos ir raudonos taškus žemėlapyje.

Perkelti pele per norėdami pamatyti stoties vardą.

Tada spustelėkite, norėdami matyti oro stebėjimo ir prognozės.

Norėdami pakeisti žemėlapį: spustelėkite ant žalios mygtukų su juodo kryžiaus žemyn,; žalią mygtuką su brūkšneliu, jei norite nutolinti; arba žalių rodyklių gretimoms žemėlapius.


METAR-TAF: